createdAt,value
2018-09-02T00:00:36.258Z,4.87
2018-09-02T00:03:05.318Z,4.43
2018-09-02T00:05:33.878Z,5.97
2018-09-02T00:08:02.209Z,6.10
2018-09-02T00:10:31.055Z,6.40
2018-09-02T00:12:59.484Z,5.60
2018-09-02T00:15:27.754Z,5.13
2018-09-02T00:17:56.061Z,6.20
2018-09-02T00:20:24.373Z,6.20
2018-09-02T00:22:52.597Z,5.20
2018-09-02T00:25:20.860Z,5.70
2018-09-02T00:27:49.112Z,6.20
2018-09-02T00:30:17.350Z,5.80
2018-09-02T00:32:45.598Z,5.67
2018-09-02T00:35:13.894Z,4.60
2018-09-02T00:37:42.145Z,5.30
2018-09-02T00:40:10.485Z,5.87
2018-09-02T00:42:38.788Z,5.80
2018-09-02T00:45:07.317Z,4.70
2018-09-02T00:47:35.603Z,6.27
2018-09-02T00:50:03.938Z,5.20
2018-09-02T00:52:32.234Z,4.60
2018-09-02T00:55:00.506Z,5.83
2018-09-02T00:57:28.759Z,5.50
2018-09-02T00:59:57.069Z,5.17
2018-09-02T01:02:25.316Z,5.03
2018-09-02T01:04:53.598Z,5.60
2018-09-02T01:07:21.905Z,4.63
2018-09-02T01:09:50.285Z,5.30
2018-09-02T01:12:18.555Z,5.50
2018-09-02T01:14:46.927Z,5.23
2018-09-02T01:17:15.194Z,5.73
2018-09-02T01:19:43.491Z,5.07
2018-09-02T01:22:12.022Z,5.17
2018-09-02T01:24:40.310Z,5.30
2018-09-02T01:27:08.592Z,5.50
2018-09-02T01:29:36.936Z,5.53
2018-09-02T01:32:05.244Z,5.00
2018-09-02T01:34:33.516Z,5.70
2018-09-02T01:37:01.866Z,4.43
2018-09-02T01:39:30.112Z,4.73
2018-09-02T01:41:58.410Z,6.20
2018-09-02T01:44:26.679Z,5.80
2018-09-02T01:46:54.943Z,5.47
2018-09-02T01:49:23.219Z,4.77
2018-09-02T01:51:51.504Z,5.70
2018-09-02T01:54:19.764Z,5.03
2018-09-02T01:56:48.035Z,5.50
2018-09-02T01:59:16.314Z,5.60
2018-09-02T02:01:44.550Z,5.00
2018-09-02T02:04:12.846Z,6.90
2018-09-02T02:06:41.101Z,5.40
2018-09-02T02:09:10.509Z,5.17
2018-09-02T02:11:38.839Z,4.93
2018-09-02T02:14:07.366Z,5.13
2018-09-02T02:16:35.638Z,4.80
2018-09-02T02:19:04.090Z,4.67
2018-09-02T02:21:32.381Z,4.87
2018-09-02T02:24:00.680Z,4.67
2018-09-02T02:26:28.954Z,4.40
2018-09-02T02:28:57.226Z,5.20
2018-09-02T02:31:25.491Z,4.57
2018-09-02T02:33:53.768Z,5.27
2018-09-02T02:36:22.088Z,5.33
2018-09-02T02:38:50.359Z,5.23
2018-09-02T02:41:18.744Z,6.20
2018-09-02T02:43:47.073Z,4.87
2018-09-02T02:46:15.332Z,5.60
2018-09-02T02:48:43.632Z,5.40
2018-09-02T02:51:11.920Z,5.23
2018-09-02T02:53:40.188Z,4.17
2018-09-02T02:56:08.426Z,4.40
2018-09-02T02:58:36.712Z,5.50
2018-09-02T03:01:05.056Z,4.70
2018-09-02T03:03:33.549Z,4.70
2018-09-02T03:06:01.792Z,4.70
2018-09-02T03:08:30.052Z,5.40
2018-09-02T03:10:58.327Z,4.50
2018-09-02T03:13:26.622Z,4.93
2018-09-02T03:15:54.895Z,5.43
2018-09-02T03:18:23.142Z,5.00
2018-09-02T03:20:51.398Z,4.70
2018-09-02T03:23:19.692Z,5.23
2018-09-02T03:25:47.963Z,5.37
2018-09-02T03:28:16.246Z,5.13
2018-09-02T03:30:44.520Z,5.50
2018-09-02T03:33:12.803Z,4.97
2018-09-02T03:35:41.075Z,5.30
2018-09-02T03:38:09.350Z,5.20
2018-09-02T03:40:37.639Z,4.47
2018-09-02T03:43:05.954Z,5.60
2018-09-02T03:45:34.374Z,4.90
2018-09-02T03:48:02.686Z,4.57
2018-09-02T03:50:31.067Z,5.30
2018-09-02T03:52:59.434Z,4.50
2018-09-02T03:55:27.695Z,5.40
2018-09-02T03:57:55.967Z,5.50
2018-09-02T04:00:24.270Z,5.40
2018-09-02T04:02:52.563Z,4.60
2018-09-02T04:05:20.827Z,4.73
2018-09-02T04:07:49.168Z,5.10
2018-09-02T04:10:17.411Z,5.63
2018-09-02T04:12:45.663Z,5.47
2018-09-02T04:15:13.978Z,5.10
2018-09-02T04:17:42.271Z,4.83
2018-09-02T04:20:10.550Z,5.27
2018-09-02T04:22:38.854Z,5.30
2018-09-02T04:25:07.136Z,4.93
2018-09-02T04:27:35.412Z,5.40
2018-09-02T04:30:03.707Z,5.10
2018-09-02T04:32:31.963Z,6.00
2018-09-02T04:35:00.240Z,5.77
2018-09-02T04:37:28.491Z,5.20
2018-09-02T04:39:56.750Z,5.53
2018-09-02T04:42:25.042Z,5.00
2018-09-02T04:44:53.279Z,5.40
2018-09-02T04:47:21.535Z,5.80
2018-09-02T04:49:49.815Z,5.37
2018-09-02T04:52:18.167Z,4.90
2018-09-02T04:54:46.451Z,5.20
2018-09-02T04:57:14.751Z,4.87
2018-09-02T04:59:43.032Z,5.67
2018-09-02T05:02:11.283Z,4.70
2018-09-02T05:04:40.431Z,5.60
2018-09-02T05:07:08.721Z,4.77
2018-09-02T05:09:36.991Z,5.73
2018-09-02T05:12:05.319Z,5.37
2018-09-02T05:14:33.562Z,5.37
2018-09-02T05:17:01.845Z,5.00
2018-09-02T05:19:30.091Z,5.30
2018-09-02T05:21:58.346Z,5.97
2018-09-02T05:24:26.611Z,6.03
2018-09-02T05:26:54.851Z,4.97
2018-09-02T05:29:23.124Z,5.00
2018-09-02T05:31:51.409Z,5.53
2018-09-02T05:34:19.677Z,5.33
2018-09-02T05:36:47.968Z,5.60
2018-09-02T05:39:16.190Z,5.73
2018-09-02T05:41:44.493Z,6.67
2018-09-02T05:44:12.809Z,5.50
2018-09-02T05:46:41.169Z,5.80
2018-09-02T05:49:09.428Z,5.93
2018-09-02T05:51:37.722Z,5.90
2018-09-02T05:54:06.088Z,6.17
2018-09-02T05:56:34.379Z,6.30
2018-09-02T05:59:02.681Z,5.63
2018-09-02T06:01:31.006Z,5.80
2018-09-02T06:03:59.253Z,5.70
2018-09-02T06:06:27.543Z,6.03
2018-09-02T06:08:55.817Z,5.93
2018-09-02T06:11:24.060Z,6.10
2018-09-02T06:13:52.327Z,5.67
2018-09-02T06:16:20.667Z,6.80
2018-09-02T06:18:48.909Z,8.40
2018-09-02T06:21:17.213Z,6.47
2018-09-02T06:23:45.496Z,6.77
2018-09-02T06:26:13.837Z,6.50
2018-09-02T06:28:42.100Z,7.03
2018-09-02T06:31:10.363Z,6.67
2018-09-02T06:33:38.624Z,6.33
2018-09-02T06:36:06.906Z,6.07
2018-09-02T06:38:35.177Z,6.57
2018-09-02T06:41:03.423Z,7.70
2018-09-02T06:43:31.720Z,6.37
2018-09-02T06:46:00.047Z,6.40
2018-09-02T06:48:28.369Z,7.20
2018-09-02T06:50:56.868Z,7.57
2018-09-02T06:53:25.180Z,7.00
2018-09-02T06:55:53.487Z,7.07
2018-09-02T06:58:21.779Z,6.73
2018-09-02T07:00:50.080Z,7.00
2018-09-02T07:03:18.395Z,6.53
2018-09-02T07:05:46.728Z,6.87
2018-09-02T07:08:14.996Z,8.07
2018-09-02T07:10:43.558Z,7.97
2018-09-02T07:13:11.958Z,8.07
2018-09-02T07:15:40.287Z,6.80
2018-09-02T07:18:08.683Z,7.33
2018-09-02T07:20:37.040Z,7.40
2018-09-02T07:23:05.525Z,7.60
2018-09-02T07:25:34.025Z,8.17
2018-09-02T07:28:02.384Z,8.37
2018-09-02T07:30:30.722Z,7.00
2018-09-02T07:32:59.096Z,8.23
2018-09-02T07:35:27.443Z,7.50
2018-09-02T07:37:55.966Z,7.43
2018-09-02T07:40:24.297Z,7.43
2018-09-02T07:42:52.676Z,8.10
2018-09-02T07:45:21.216Z,7.20
2018-09-02T07:47:49.618Z,6.23
2018-09-02T07:50:17.946Z,6.60
2018-09-02T07:52:46.296Z,7.33
2018-09-02T07:55:14.592Z,6.87
2018-09-02T07:57:42.847Z,6.77
2018-09-02T08:00:11.676Z,7.00
2018-09-02T08:02:40.751Z,7.47
2018-09-02T08:05:09.125Z,6.87
2018-09-02T08:07:37.774Z,7.47
2018-09-02T08:10:07.682Z,6.77
2018-09-02T08:12:36.103Z,6.77
2018-09-02T08:15:04.532Z,6.50
2018-09-02T08:17:32.869Z,7.57
2018-09-02T08:20:01.395Z,7.07
2018-09-02T08:22:30.428Z,6.20
2018-09-02T08:24:58.652Z,6.57
2018-09-02T08:27:26.928Z,5.73
2018-09-02T08:29:55.600Z,5.50
2018-09-02T08:32:24.080Z,6.43
2018-09-02T08:34:52.683Z,5.07
2018-09-02T08:37:21.128Z,5.30
2018-09-02T08:39:49.520Z,4.20
2018-09-02T08:42:17.845Z,4.60
2018-09-02T08:44:46.246Z,4.63
2018-09-02T08:47:14.652Z,4.60
2018-09-02T08:49:43.155Z,4.10
2018-09-02T08:55:23.849Z,3.77
2018-09-02T08:57:52.513Z,3.80
2018-09-02T09:00:21.007Z,4.00
2018-09-02T09:02:50.366Z,4.03
2018-09-02T09:05:18.684Z,3.77
2018-09-02T09:07:47.060Z,3.60
2018-09-02T09:10:15.268Z,3.37
2018-09-02T09:12:43.597Z,3.17
2018-09-02T09:15:11.850Z,3.03
2018-09-02T09:17:40.149Z,4.13
2018-09-02T09:20:08.855Z,4.50
2018-09-02T09:22:38.278Z,4.20
2018-09-02T09:25:07.531Z,3.97
2018-09-02T09:27:35.838Z,4.17
2018-09-02T09:30:04.184Z,3.97
2018-09-02T09:32:32.908Z,3.43
2018-09-02T09:35:01.402Z,4.47
2018-09-02T09:37:29.988Z,3.80
2018-09-02T09:39:59.608Z,3.33
2018-09-02T09:42:28.191Z,3.53
2018-09-02T09:44:56.506Z,3.60
2018-09-02T09:47:24.750Z,4.90
2018-09-02T09:49:53.217Z,3.57
2018-09-02T09:52:21.506Z,3.33
2018-09-02T09:54:49.819Z,3.20
2018-09-02T09:57:18.153Z,3.63
2018-09-02T09:59:46.483Z,3.27
2018-09-02T10:02:14.780Z,3.37
2018-09-02T10:04:43.044Z,3.30
2018-09-02T10:07:11.398Z,3.13
2018-09-02T10:09:39.633Z,2.97
2018-09-02T10:12:07.941Z,3.30
2018-09-02T10:14:36.259Z,3.47
2018-09-02T10:17:04.652Z,3.50
2018-09-02T10:19:32.869Z,3.23
2018-09-02T10:22:01.259Z,4.07
2018-09-02T10:24:30.177Z,3.20
2018-09-02T10:26:58.465Z,2.80
2018-09-02T10:29:26.771Z,3.63
2018-09-02T10:31:55.030Z,3.80
2018-09-02T10:34:23.325Z,2.97
2018-09-02T10:36:51.831Z,4.03
2018-09-02T10:39:20.132Z,3.23
2018-09-02T10:41:48.496Z,3.93
2018-09-02T10:44:16.791Z,3.77
2018-09-02T10:46:45.037Z,4.17
2018-09-02T10:49:13.709Z,3.30
2018-09-02T10:51:42.110Z,4.00
2018-09-02T10:54:11.139Z,3.60
2018-09-02T10:56:39.953Z,3.37
2018-09-02T10:59:08.620Z,2.93
2018-09-02T11:01:37.034Z,3.03
2018-09-02T11:04:06.144Z,3.93
2018-09-02T11:06:34.420Z,3.60
2018-09-02T11:09:02.744Z,3.20
2018-09-02T11:11:31.053Z,3.77
2018-09-02T11:13:59.582Z,3.50
2018-09-02T11:16:28.762Z,3.77
2018-09-02T11:18:57.049Z,3.50
2018-09-02T11:21:25.336Z,3.37
2018-09-02T11:23:53.630Z,3.40
2018-09-02T11:26:21.898Z,3.10
2018-09-02T11:28:50.184Z,3.97
2018-09-02T11:31:18.480Z,3.10
2018-09-02T11:33:46.869Z,3.00
2018-09-02T11:36:15.130Z,3.53
2018-09-02T11:38:43.503Z,2.63
2018-09-02T11:41:11.807Z,3.37
2018-09-02T11:43:40.136Z,3.33
2018-09-02T11:46:08.403Z,3.50
2018-09-02T11:48:36.784Z,3.60
2018-09-02T11:51:05.254Z,3.10
2018-09-02T11:53:33.725Z,2.80
2018-09-02T11:56:02.039Z,3.70
2018-09-02T11:58:30.315Z,2.93
2018-09-02T12:00:58.587Z,3.17
2018-09-02T12:03:26.870Z,3.10
2018-09-02T12:05:55.142Z,3.30
2018-09-02T12:08:23.425Z,2.97
2018-09-02T12:10:51.698Z,2.60
2018-09-02T12:13:20.041Z,2.87
2018-09-02T12:15:48.364Z,2.33
2018-09-02T12:18:16.662Z,2.60
2018-09-02T12:20:45.007Z,2.53
2018-09-02T12:23:13.311Z,2.73
2018-09-02T12:25:41.705Z,4.07
2018-09-02T12:28:10.066Z,3.70
2018-09-02T12:30:38.429Z,2.60
2018-09-02T12:33:07.115Z,2.30
2018-09-02T12:35:35.434Z,2.93
2018-09-02T12:38:03.733Z,2.60
2018-09-02T12:40:32.143Z,2.57
2018-09-02T12:43:00.718Z,2.10
2018-09-02T12:45:29.173Z,2.30
2018-09-02T12:47:57.585Z,1.90
2018-09-02T12:50:25.825Z,2.30
2018-09-02T12:52:54.170Z,2.23
2018-09-02T12:55:22.660Z,2.00
2018-09-02T12:57:50.875Z,1.67
2018-09-02T13:00:19.188Z,2.10
2018-09-02T13:02:47.549Z,1.97
2018-09-02T13:05:15.934Z,2.03
2018-09-02T13:07:44.236Z,2.10
2018-09-02T13:10:12.564Z,2.03
2018-09-02T13:12:41.381Z,2.40
2018-09-02T13:15:09.809Z,2.13
2018-09-02T13:17:38.060Z,2.30
2018-09-02T13:20:06.575Z,2.17
2018-09-02T13:22:34.898Z,2.10
2018-09-02T13:25:03.138Z,2.63
2018-09-02T13:27:31.446Z,2.10
2018-09-02T13:29:59.688Z,3.00
2018-09-02T13:32:27.984Z,2.10
2018-09-02T13:34:56.251Z,2.53
2018-09-02T13:37:24.513Z,2.00
2018-09-02T13:39:52.816Z,2.00
2018-09-02T13:42:21.269Z,2.10
2018-09-02T13:44:49.656Z,1.70
2018-09-02T13:47:17.964Z,2.27
2018-09-02T13:49:46.234Z,2.20
2018-09-02T13:52:14.593Z,2.20
2018-09-02T13:54:42.996Z,2.00
2018-09-02T13:57:11.260Z,1.57
2018-09-02T13:59:40.725Z,2.00
2018-09-02T14:02:09.096Z,2.57
2018-09-02T14:04:37.343Z,2.30
2018-09-02T14:07:05.623Z,2.00
2018-09-02T14:09:33.887Z,1.90
2018-09-02T14:12:02.237Z,2.27
2018-09-02T14:14:30.915Z,2.10
2018-09-02T14:16:59.215Z,2.57
2018-09-02T14:19:27.469Z,1.70
2018-09-02T14:21:55.767Z,2.00
2018-09-02T14:24:24.044Z,2.70
2018-09-02T14:26:52.336Z,2.40
2018-09-02T14:29:20.603Z,2.17
2018-09-02T14:31:49.083Z,2.07
2018-09-02T14:34:17.346Z,2.00
2018-09-02T14:36:45.731Z,2.37
2018-09-02T14:39:14.703Z,2.23
2018-09-02T14:41:43.289Z,2.07
2018-09-02T14:44:11.607Z,3.03
2018-09-02T14:46:39.931Z,2.43
2018-09-02T14:49:08.612Z,2.30
2018-09-02T14:51:36.911Z,2.60
2018-09-02T14:54:08.682Z,2.10
2018-09-02T14:56:37.175Z,2.20
2018-09-02T14:59:05.430Z,2.10
2018-09-02T15:01:33.736Z,2.80
2018-09-02T15:04:02.095Z,1.80
2018-09-02T15:06:30.415Z,2.23
2018-09-02T15:08:59.250Z,2.17
2018-09-02T15:11:27.577Z,2.00
2018-09-02T15:13:55.872Z,5.63
2018-09-02T15:16:24.135Z,2.50
2018-09-02T15:18:52.441Z,1.70
2018-09-02T15:21:20.845Z,1.90
2018-09-02T15:23:49.946Z,2.20
2018-09-02T15:26:19.285Z,2.63
2018-09-02T15:28:47.570Z,3.27
2018-09-02T15:31:15.908Z,4.13
2018-09-02T15:33:44.235Z,2.70
2018-09-02T15:36:12.520Z,2.30
2018-09-02T15:38:40.785Z,3.50
2018-09-02T15:41:09.145Z,2.67
2018-09-02T15:43:37.424Z,3.40
2018-09-02T15:46:05.797Z,2.37
2018-09-02T15:48:34.099Z,2.30
2018-09-02T15:51:02.402Z,2.77
2018-09-02T15:53:30.642Z,2.20
2018-09-02T15:55:59.129Z,2.50
2018-09-02T15:58:27.412Z,2.20
2018-09-02T16:00:55.707Z,2.10
2018-09-02T16:03:23.928Z,2.27
2018-09-02T16:05:52.214Z,2.43
2018-09-02T16:08:20.499Z,2.50
2018-09-02T16:10:48.727Z,2.03
2018-09-02T16:13:17.141Z,2.13
2018-09-02T16:15:45.378Z,2.00
2018-09-02T16:18:13.755Z,2.33
2018-09-02T16:20:42.099Z,2.03
2018-09-02T16:23:10.356Z,2.60
2018-09-02T16:25:38.607Z,3.67
2018-09-02T16:28:06.894Z,3.07
2018-09-02T16:30:35.173Z,2.50
2018-09-02T16:33:03.426Z,2.40
2018-09-02T16:35:31.727Z,2.60
2018-09-02T16:37:59.998Z,1.90
2018-09-02T16:40:28.246Z,2.40
2018-09-02T16:42:56.763Z,2.80
2018-09-02T16:45:25.087Z,2.47
2018-09-02T16:47:53.424Z,2.70
2018-09-02T16:50:21.719Z,2.90
2018-09-02T16:52:50.056Z,2.30
2018-09-02T16:55:18.311Z,2.47
2018-09-02T16:57:46.602Z,1.97
2018-09-02T17:00:14.877Z,2.20
2018-09-02T17:02:43.231Z,2.60
2018-09-02T17:05:16.517Z,2.00
2018-09-02T17:07:44.838Z,2.90
2018-09-02T17:10:13.091Z,2.00
2018-09-02T17:12:41.498Z,2.23
2018-09-02T17:15:09.643Z,2.23
2018-09-02T17:17:37.884Z,3.10
2018-09-02T17:20:06.285Z,2.30
2018-09-02T17:22:34.576Z,3.00
2018-09-02T17:25:02.875Z,2.40
2018-09-02T17:27:31.148Z,2.40
2018-09-02T17:29:59.426Z,3.20
2018-09-02T17:32:27.910Z,3.80
2018-09-02T17:34:56.190Z,2.80
2018-09-02T17:37:24.468Z,2.60
2018-09-02T17:39:52.882Z,2.80
2018-09-02T17:42:21.134Z,2.90
2018-09-02T17:44:49.432Z,3.30
2018-09-02T17:47:17.707Z,2.43
2018-09-02T17:49:45.933Z,2.20
2018-09-02T17:52:14.209Z,1.80
2018-09-02T17:54:42.528Z,2.23
2018-09-02T17:57:10.969Z,2.40
2018-09-02T17:59:39.229Z,2.30
2018-09-02T18:02:07.519Z,2.37
2018-09-02T18:04:35.813Z,2.27
2018-09-02T18:07:04.097Z,2.30
2018-09-02T18:09:32.463Z,2.30
2018-09-02T18:12:00.705Z,2.80
2018-09-02T18:14:28.994Z,1.97
2018-09-02T18:16:57.241Z,2.33
2018-09-02T18:19:25.535Z,4.27
2018-09-02T18:21:53.865Z,2.70
2018-09-02T18:24:22.125Z,1.90
2018-09-02T18:26:50.421Z,1.90
2018-09-02T18:29:18.730Z,1.83
2018-09-02T18:31:47.056Z,2.50
2018-09-02T18:34:15.311Z,2.00
2018-09-02T18:36:43.617Z,2.80
2018-09-02T18:39:12.251Z,2.27
2018-09-02T18:41:40.892Z,2.80
2018-09-02T18:44:09.163Z,2.80
2018-09-02T18:46:37.771Z,3.00
2018-09-02T18:49:06.906Z,3.33
2018-09-02T18:51:35.472Z,2.87
2018-09-02T18:54:03.731Z,2.50
2018-09-02T18:56:32.183Z,2.93
2018-09-02T18:59:00.480Z,2.93
2018-09-02T19:01:28.753Z,2.60
2018-09-02T19:03:56.997Z,6.00
2018-09-02T19:06:25.263Z,4.93
2018-09-02T19:08:53.722Z,3.20
2018-09-02T19:11:22.001Z,2.83
2018-09-02T19:13:50.315Z,2.10
2018-09-02T19:16:18.821Z,2.20
2018-09-02T19:18:47.012Z,2.50
2018-09-02T19:21:15.283Z,2.23
2018-09-02T19:23:43.737Z,2.40
2018-09-02T19:26:12.099Z,2.73
2018-09-02T19:28:40.451Z,2.47
2018-09-02T19:31:08.784Z,2.63
2018-09-02T19:33:37.114Z,2.60
2018-09-02T19:36:05.431Z,2.10
2018-09-02T19:38:33.720Z,3.17
2018-09-02T19:41:01.989Z,1.80
2018-09-02T19:43:30.371Z,2.53
2018-09-02T19:45:58.662Z,2.87
2018-09-02T19:48:27.130Z,2.30
2018-09-02T19:50:55.385Z,2.17
2018-09-02T19:53:23.666Z,2.20
2018-09-02T19:55:51.942Z,2.80
2018-09-02T19:58:20.215Z,2.20
2018-09-02T20:00:48.572Z,2.37
2018-09-02T20:03:16.975Z,2.80
2018-09-02T20:05:45.326Z,2.43
2018-09-02T20:08:13.618Z,2.23
2018-09-02T20:10:41.886Z,2.50
2018-09-02T20:13:10.141Z,2.77
2018-09-02T20:15:38.619Z,2.30
2018-09-02T20:18:06.889Z,2.80
2018-09-02T20:20:35.123Z,2.77
2018-09-02T20:23:04.398Z,2.50
2018-09-02T20:25:33.599Z,2.83
2018-09-02T20:28:02.244Z,3.87
2018-09-02T20:30:30.526Z,2.57
2018-09-02T20:32:58.801Z,2.60
2018-09-02T20:35:27.109Z,2.70
2018-09-02T20:37:56.179Z,2.80
2018-09-02T20:40:24.494Z,3.20
2018-09-02T20:42:52.753Z,2.60
2018-09-02T20:45:21.517Z,2.80
2018-09-02T20:47:50.601Z,3.63
2018-09-02T20:50:19.891Z,2.40
2018-09-02T20:52:48.150Z,2.80
2018-09-02T20:55:17.316Z,3.10
2018-09-02T20:57:45.812Z,2.20
2018-09-02T21:00:14.145Z,3.10
2018-09-02T21:02:42.384Z,3.00
2018-09-02T21:05:11.475Z,3.73
2018-09-02T21:07:39.764Z,2.57
2018-09-02T21:10:08.026Z,2.67
2018-09-02T21:12:36.945Z,3.30
2018-09-02T21:15:05.253Z,2.53
2018-09-02T21:17:33.536Z,2.67
2018-09-02T21:20:01.818Z,2.73
2018-09-02T21:22:30.098Z,2.80
2018-09-02T21:24:58.354Z,3.17
2018-09-02T21:27:26.664Z,3.43
2018-09-02T21:29:54.979Z,2.50
2018-09-02T21:32:23.283Z,2.60
2018-09-02T21:34:51.516Z,3.40
2018-09-02T21:37:19.759Z,3.00
2018-09-02T21:39:48.067Z,3.03
2018-09-02T21:42:16.334Z,3.20
2018-09-02T21:44:44.634Z,2.90
2018-09-02T21:47:12.957Z,2.47
2018-09-02T21:49:41.215Z,3.23
2018-09-02T21:52:09.476Z,2.93
2018-09-02T21:54:37.747Z,3.00
2018-09-02T21:57:06.021Z,2.40
2018-09-02T21:59:34.530Z,2.30
2018-09-02T22:02:02.783Z,2.53
2018-09-02T22:04:31.030Z,3.03
2018-09-02T22:06:59.308Z,2.60
2018-09-02T22:09:27.598Z,2.57
2018-09-02T22:11:55.875Z,3.50
2018-09-02T22:14:24.136Z,3.40
2018-09-02T22:16:52.398Z,2.83
2018-09-02T22:19:20.689Z,2.70
2018-09-02T22:21:48.975Z,2.70
2018-09-02T22:24:17.211Z,2.60
2018-09-02T22:26:45.483Z,2.93
2018-09-02T22:29:13.792Z,3.50
2018-09-02T22:31:42.067Z,3.30
2018-09-02T22:34:10.286Z,3.70
2018-09-02T22:36:38.534Z,3.33
2018-09-02T22:39:07.353Z,2.67
2018-09-02T22:41:35.617Z,3.40
2018-09-02T22:44:03.951Z,3.33
2018-09-02T22:46:32.182Z,3.00
2018-09-02T22:49:00.466Z,3.10
2018-09-02T22:51:28.798Z,3.30
2018-09-02T22:53:57.069Z,3.43
2018-09-02T22:56:25.354Z,3.77
2018-09-02T22:58:53.605Z,3.30
2018-09-02T23:01:21.822Z,3.53
2018-09-02T23:03:50.206Z,3.13
2018-09-02T23:06:18.472Z,3.17
2018-09-02T23:08:46.760Z,3.57
2018-09-02T23:11:15.319Z,3.50
2018-09-02T23:13:43.560Z,2.90
2018-09-02T23:16:11.815Z,2.77
2018-09-02T23:18:40.065Z,2.77
2018-09-02T23:21:08.375Z,2.57
2018-09-02T23:23:36.719Z,2.97
2018-09-02T23:26:05.040Z,3.30
2018-09-02T23:28:33.295Z,3.47
2018-09-02T23:31:01.554Z,3.47
2018-09-02T23:33:29.831Z,3.53
2018-09-02T23:35:58.088Z,3.50
2018-09-02T23:38:26.345Z,3.33
2018-09-02T23:40:54.573Z,2.90
2018-09-02T23:43:22.908Z,3.97
2018-09-02T23:45:51.141Z,3.50
2018-09-02T23:48:19.399Z,3.13
2018-09-02T23:50:47.642Z,3.67
2018-09-02T23:53:15.916Z,3.37
2018-09-02T23:55:44.177Z,3.50
2018-09-02T23:58:12.490Z,3.47
